• Join FlightAware (Why Join?)
  • Login
  • US Flag 
03:22AM EDT


 

Airport Tracker/Info


-or-


 

Live Flight TrackerFlight Track Log ✈ N929SR ✈ 12-Apr-2013 ✈ KYIP - KSDL

Flight Track Log - Related Links

Times and Time Zones

All times are in EDT time to prevent confusion due to time zone crossing. See the N929SR flight status page for this flight to view local times or setup timezone preferences in your user account.

Time Position Orientation Groundspeed Altitude Reporting Facility
EDT Latitude Longitude Course Direction KTS MPH feet Rate Location/Type
10:26PM 42.2239 -83.5469 228° Southwest 172 198 1,700  Level Cleveland Center
10:27PM 42.1981 -83.5850 228° Southwest 175 201 3,000 1,800 Climbing Cleveland Center
10:28PM 42.2033 -83.6161 283° West 200 230 3,900 2,100 Climbing Cleveland Center
10:28PM 42.2150 -83.6503 295° West 224 258 5,100 2,640 Climbing Cleveland Center
10:28PM 42.2286 -83.6819 300° West 236 272 6,300 3,300 Climbing Cleveland Center
10:29PM 42.2461 -83.7275 297° West 234 269 8,400 3,240 Climbing Cleveland Center
10:30PM 42.2792 -83.8136 297° West 240 276 11,600 3,000 Climbing Cleveland Center
10:31PM 42.3122 -83.8994 298° West 264 304 14,400 3,180 Climbing Cleveland Center
10:32PM 42.3528 -84.0083 297° West 297 342 18,000 3,540 Climbing Cleveland Center
10:33PM 42.3956 -84.1175 298° West 322 371 21,500 3,420 Climbing Cleveland Center
10:34PM 42.4294 -84.2319 292° West 332 382 24,900 3,000 Climbing Cleveland Center
10:35PM 42.4317 -84.3586 271° West 332 382 27,600 2,520 Climbing Cleveland Center
10:36PM 42.4333 -84.4911 271° West 338 389 30,000 2,100 Climbing Cleveland Center
10:38PM 42.4422 -84.7461 273° West 372 428 33,700 1,500 Climbing Chicago Center
10:39PM 42.4444 -84.8922 271° West 382 440 34,300 720 Climbing Chicago Center
10:40PM 42.4472 -85.0358 272° West 383 441 35,200 900 Climbing Chicago Center
10:41PM 42.4511 -85.1758 272° West 378 435 36,200 1,140 Climbing Chicago Center
10:42PM 42.4553 -85.3475 272° West 380 437 37,600 1,380 Climbing Chicago Center
10:43PM 42.4569 -85.4892 271° West 378 435 39,100 1,140 Climbing Chicago Center
10:44PM 42.4586 -85.6228 271° West 361 415 40,000 420 Climbing Chicago Center
10:45PM 42.4617 -85.7592 272° West 362 417 40,000  Level Chicago Center
10:46PM 42.4631 -85.9019 271° West 375 432 40,000  Level Chicago Center
10:47PM 42.4656 -86.0492 271° West 387 445 40,000  Level Chicago Center
10:48PM 42.4514 -86.1947 263° West 387 445 40,000  Level Chicago Center
10:49PM 42.4292 -86.3394 258° West 392 451 40,000  Level Chicago Center
10:50PM 42.4081 -86.4781 258° West 380 437 40,000  Level Chicago Center
10:51PM 42.3856 -86.6158 258° West 376 433 40,000  Level Chicago Center
10:52PM 42.3639 -86.7647 259° West 373 429 40,000  Level Chicago Center
10:53PM 42.3419 -86.9008 258° West 374 430 40,000  Level Chicago Center
10:54PM 42.3200 -87.0389 258° West 378 435 40,000  Level Chicago Center
10:55PM 42.2958 -87.1731 256° West 372 428 40,000  Level Chicago Center
10:56PM 42.2736 -87.3119 258° West 379 436 40,000  Level Chicago Center
10:57PM 42.2467 -87.4800 258° West 385 443 40,000  Level Chicago Center
10:58PM 42.2228 -87.6186 257° West 384 442 40,000  Level Chicago Center
10:59PM 42.1994 -87.7564 257° West 383 441 40,000  Level Chicago Center
11:00PM 42.1756 -87.8972 257° West 388 447 40,000  Level Chicago Center
11:01PM 42.1514 -88.0353 257° West 384 442 40,000  Level Chicago Center
11:02PM 42.1281 -88.1747 257° West 385 443 40,000  Level Chicago Center
11:03PM 42.1042 -88.3128 257° West 383 441 40,000  Level Chicago Center
11:04PM 42.0797 -88.4511 257° West 382 440 40,000  Level Chicago Center
11:05PM 42.0553 -88.5911 257° West 387 445 40,000  Level Chicago Center
11:06PM 42.0253 -88.7594 257° West 389 448 40,000  Level Chicago Center
11:07PM 41.9994 -88.9003 256° West 390 449 40,000  Level Chicago Center
11:08PM 41.9747 -89.0406 257° West 390 449 40,000  Level Chicago Center
11:09PM 41.9486 -89.1800 256° West 389 448 40,000  Level Chicago Center
11:11PM 41.9239 -89.3228 257° West 394 453 40,000  Level Chicago Center
11:12PM 41.8978 -89.4633 256° West 390 449 40,000  Level Chicago Center
11:13PM 41.8714 -89.6014 256° West 387 445 40,000  Level Chicago Center
11:14PM 41.8447 -89.7411 256° West 389 448 40,000  Level Chicago Center
11:15PM 41.8183 -89.8825 256° West 391 450 40,000  Level Chicago Center
11:16PM 41.7914 -90.0308 256° West 389 448 40,000  Level Chicago Center
11:17PM 41.7644 -90.1703 256° West 389 448 40,000  Level Chicago Center
11:18PM 41.7358 -90.3144 255° West 398 458 40,000  Level Chicago Center
11:19PM 41.7092 -90.4550 256° West 394 453 40,000  Level Chicago Center
11:20PM 41.6761 -90.6208 255° West 388 447 40,000  Level Chicago Center
11:21PM 41.6531 -90.7403 256° West 391 450 40,000  Level Chicago Center
11:22PM 41.6247 -90.8808 255° West 393 452 40,000  Level Chicago Center
11:23PM 41.5919 -91.0492 255° West 391 450 40,000  Level Chicago Center
11:24PM 41.5617 -91.1917 254° West 397 457 40,000  Level Chicago Center
11:25PM 41.5331 -91.3336 255° West 396 456 40,000  Level Chicago Center
11:26PM 41.5053 -91.4758 255° West 396 456 40,000  Level Chicago Center
11:27PM 41.4756 -91.6183 254° West 399 459 40,000  Level Chicago Center
11:28PM 41.4461 -91.7606 255° West 400 460 40,000  Level Chicago Center
11:29PM 41.4167 -91.9039 255° West 402 463 40,000  Level Chicago Center
11:30PM 41.3858 -92.0472 254° West 405 466 40,000  Level Chicago Center
11:31PM 41.3564 -92.1886 255° West 400 460 40,000  Level Chicago Center
11:32PM 41.3250 -92.3286 253° West 399 459 40,000  Level Chicago Center
11:33PM 41.2894 -92.4967 254° West 403 464 40,000  Level Chicago Center
11:34PM 41.2592 -92.6372 254° West 402 463 40,000  Level Chicago Center
11:35PM 41.2406 -92.7244 254° West 402 463 40,000  Level Minneapolis Center
11:36PM 41.2103 -92.8631 254° West 399 459 40,000  Level Minneapolis Center
11:37PM 41.1728 -93.0283 253° West 396 456 40,000  Level Minneapolis Center
11:38PM 41.1425 -93.1672 254° West 395 455 40,000  Level Minneapolis Center
11:39PM 41.1114 -93.3025 253° West 391 450 40,000  Level Minneapolis Center
11:40PM 41.0814 -93.4406 254° West 392 451 40,000  Level Minneapolis Center
11:41PM 41.0506 -93.5775 253° West 392 451 40,000  Level Minneapolis Center
11:42PM 41.0189 -93.7153 253° West 393 452 40,000  Level Minneapolis Center
11:43PM 40.9878 -93.8517 253° West 392 451 40,000  Level Minneapolis Center
11:44PM 40.9558 -93.9889 253° West 393 452 40,000  Level Minneapolis Center
11:45PM 40.9200 -94.1528 254° West 391 450 40,000  Level Minneapolis Center
11:46PM 40.8867 -94.2897 252° West 392 451 40,000  Level Minneapolis Center
11:47PM 40.8503 -94.4300 251° West 398 458 40,000  Level Minneapolis Center
11:48PM 40.8172 -94.5653 252° West 398 458 40,000  Level Minneapolis Center
11:49PM 40.7903 -94.6972 255° West 388 447 40,000  Level Minneapolis Center
11:50PM 40.7567 -94.8364 252° West 390 449 40,000  Level Minneapolis Center
11:51PM 40.7222 -94.9736 252° West 394 453 40,000  Level Minneapolis Center
11:52PM 40.6908 -95.1097 253° West 391 450 40,000  Level Minneapolis Center
11:53PM 40.6575 -95.2464 252° West 390 449 40,000  Level Minneapolis Center
11:54PM 40.6233 -95.3844 252° West 394 453 40,000  Level Minneapolis Center
11:55PM 40.5894 -95.5219 252° West 395 455 40,000  Level Minneapolis Center
11:56PM 40.5558 -95.6594 252° West 394 453 40,000  Level Minneapolis Center
11:57PM 40.5225 -95.7972 252° West 394 453 40,000  Level Minneapolis Center
11:58PM 40.4881 -95.9372 252° West 398 458 40,000  Level Minneapolis Center
11:59PM 40.4528 -96.0728 251° West 395 455 40,000  Level Minneapolis Center
12:00AM 40.4103 -96.2439 252° West 402 463 40,000  Level Minneapolis Center
12:01AM 40.3725 -96.3858 251° West 406 467 40,000  Level Minneapolis Center
12:02AM 40.3361 -96.5283 252° West 409 471 40,000  Level Minneapolis Center
12:03AM 40.2992 -96.6719 251° West 411 473 40,000  Level Minneapolis Center
12:04AM 40.2617 -96.8156 251° West 413 475 40,000  Level Minneapolis Center
12:05AM 40.2256 -96.9561 251° West 412 474 40,000  Level Minneapolis Center
12:06AM 40.1881 -97.0997 251° West 414 476 40,000  Level Minneapolis Center
12:07AM 40.1511 -97.2431 251° West 416 479 40,000  Level Minneapolis Center
12:08AM 40.1131 -97.3850 251° West 410 472 40,000  Level Minneapolis Center
12:09AM 40.0756 -97.5228 250° West 406 467 40,000  Level Minneapolis Center
12:10AM 40.0386 -97.6606 251° West 402 463 40,000  Level Minneapolis Center
12:11AM 40.0019 -97.7992 251° West 402 463 40,000  Level Minneapolis Center
12:12AM 39.9653 -97.9353 251° West 399 459 40,000  Level Minneapolis Center
12:13AM 39.9267 -98.0708 250° West 399 459 40,000  Level Minneapolis Center
12:14AM 39.8903 -98.2083 251° West 400 460 40,000  Level Minneapolis Center
12:15AM 39.8528 -98.3450 250° West 400 460 40,000  Level Minneapolis Center
12:16AM 39.8144 -98.4786 250° West 396 456 40,000  Level Minneapolis Center
12:17AM 39.7761 -98.6147 250° West 397 457 40,000  Level Minneapolis Center
12:18AM 39.7392 -98.7539 251° West 403 464 40,000  Level Minneapolis Center
12:19AM 39.7006 -98.8906 250° West 403 464 40,000  Level Minneapolis Center
12:20AM 39.6686 -98.9989 249° West 400 460 40,000  Level Denver Center
12:21AM 39.6300 -99.1336 250° West 398 458 40,000  Level Denver Center
12:22AM 39.5914 -99.2708 250° West 402 463 40,000  Level Denver Center
12:23AM 39.5528 -99.4033 249° West 396 456 40,000  Level Denver Center
12:24AM 39.5150 -99.5367 250° West 394 453 40,000  Level Denver Center
12:25AM 39.4792 -99.6617 250° West 393 452 40,000  Level Denver Center
12:26AM 39.4361 -99.8094 249° West 392 451 40,000  Level Denver Center
12:27AM 39.3992 -99.9347 249° West 390 449 40,000  Level Denver Center
12:28AM 39.3619 -100.0578 249° West 386 444 40,000  Level Denver Center
12:29AM 39.3189 -100.2061 249° West 391 450 40,000  Level Denver Center
12:30AM 39.2814 -100.3314 249° West 391 450 40,000  Level Denver Center
12:31AM 39.2436 -100.4578 249° West 393 452 40,000  Level Denver Center
12:32AM 39.2000 -100.6033 249° West 391 450 40,000  Level Denver Center
12:33AM 39.1614 -100.7289 248° West 392 451 40,000  Level Denver Center
12:34AM 39.1169 -100.8769 249° West 396 456 40,000  Level Denver Center
12:35AM 39.0786 -101.0022 249° West 394 453 40,000  Level Denver Center
12:36AM 39.0403 -101.1303 249° West 400 460 40,000  Level Denver Center
12:37AM 38.9953 -101.2725 248° West 396 456 40,000  Level Denver Center
12:38AM 38.9569 -101.3975 249° West 394 453 40,000  Level Denver Center
12:39AM 38.9172 -101.5250 248° West 399 459 40,000  Level Denver Center
12:40AM 38.8714 -101.6708 248° West 397 457 40,000  Level Denver Center
12:41AM 38.8325 -101.7967 248° West 397 457 40,000  Level Denver Center
12:42AM 38.7858 -101.9419 248° West 396 456 40,000  Level Denver Center
12:43AM 38.7469 -102.0650 248° West 392 451 40,000  Level Denver Center
12:44AM 38.7083 -102.1883 248° West 391 450 40,000  Level Denver Center
12:45AM 38.6619 -102.3317 248° West 392 451 40,000  Level Denver Center
12:46AM 38.6228 -102.4561 248° West 394 453 40,000  Level Denver Center
12:47AM 38.5822 -102.5803 247° West 396 456 40,000  Level Denver Center
12:48AM 38.5364 -102.7203 247° West 385 443 40,000  Level Denver Center
12:49AM 38.4983 -102.8389 248° West 378 435 40,000  Level Denver Center
12:50AM 38.4586 -102.9556 247° West 376 433 40,000  Level Denver Center
12:51AM 38.4156 -103.0925 248° West 373 429 40,000  Level Denver Center
12:52AM 38.3761 -103.2106 247° West 377 434 40,000  Level Denver Center
12:53AM 38.3369 -103.3269 247° West 373 429 40,000  Level Denver Center
12:54AM 38.2908 -103.4669 247° West 377 434 40,000  Level Denver Center
12:55AM 38.2503 -103.5856 247° West 382 440 40,000  Level Denver Center
12:56AM 38.2108 -103.7044 247° West 382 440 40,000  Level Denver Center
12:57AM 38.1642 -103.8431 247° West 382 440 40,000  Level Denver Center
12:58AM 38.1231 -103.9633 247° West 386 444 40,000  Level Denver Center
12:59AM 38.0822 -104.0833 247° West 388 447 40,000  Level Denver Center
01:00AM 38.0350 -104.2239 247° West 390 449 40,000  Level Denver Center
01:01AM 37.9933 -104.3442 246° West 391 450 40,000  Level Denver Center
01:02AM 37.9519 -104.4644 246° West 390 449 40,000  Level Denver Center
01:04AM 37.9031 -104.6053 246° West 392 451 40,000  Level Denver Center
01:05AM 37.8606 -104.7256 246° West 393 452 40,000  Level Denver Center
01:06AM 37.8189 -104.8472 247° West 394 453 40,000  Level Denver Center
01:07AM 37.7689 -104.9889 246° West 396 456 40,000  Level Denver Center
01:08AM 37.7258 -105.1100 246° West 396 456 40,000  Level Denver Center
01:09AM 37.6836 -105.2283 246° West 389 448 40,000  Level Denver Center
01:10AM 37.6339 -105.3700 246° West 394 453 40,000  Level Denver Center
01:11AM 37.5914 -105.4906 246° West 393 452 40,000  Level Denver Center
01:12AM 37.5419 -105.6250 245° Southwest 394 453 40,000  Level Denver Center
01:13AM 37.4989 -105.7456 246° West 395 455 40,000  Level Denver Center
01:14AM 37.4556 -105.8667 246° West 396 456 40,000  Level Denver Center
01:15AM 37.4106 -105.9881 245° Southwest 399 459 40,000  Level Denver Center
01:16AM 37.3589 -106.1297 245° Southwest 400 460 40,000  Level Denver Center
01:17AM 37.3147 -106.2533 246° West 404 465 40,000  Level Denver Center
01:18AM 37.2678 -106.3742 244° Southwest 404 465 40,000  Level Denver Center
01:19AM 37.2161 -106.5192 246° West 406 467 40,000  Level Denver Center
01:20AM 37.1708 -106.6417 245° Southwest 407 468 40,000  Level Denver Center
01:21AM 37.1233 -106.7658 244° Southwest 411 473 40,000  Level Denver Center
01:22AM 37.0703 -106.9119 246° West 413 475 40,000  Level Denver Center
01:23AM 37.0239 -107.0367 245° Southwest 414 476 40,000  Level Denver Center
01:24AM 36.9775 -107.1617 245° Southwest 413 475 40,000  Level Denver Center
01:25AM 36.9211 -107.3069 244° Southwest 416 479 40,000  Level Denver Center
01:26AM 36.8736 -107.4322 245° Southwest 416 479 40,000  Level Denver Center
01:27AM 36.8253 -107.5575 244° Southwest 417 480 40,000  Level Denver Center
01:28AM 36.7783 -107.6833 245° Southwest 419 482 40,000  Level Denver Center
01:29AM 36.7217 -107.8300 244° Southwest 420 483 40,000  Level Denver Center
01:30AM 36.6739 -107.9556 245° Southwest 420 483 40,000  Level Denver Center
01:31AM 36.6244 -108.0800 244° Southwest 419 482 40,000  Level Denver Center
01:32AM 36.5681 -108.2269 244° Southwest 422 486 40,000  Level Denver Center
01:33AM 36.5186 -108.3517 244° Southwest 422 486 40,000  Level Denver Center
01:34AM 36.4692 -108.4792 244° Southwest 426 490 40,000  Level Denver Center
01:35AM 36.4114 -108.6264 244° Southwest 426 490 40,000  Level Denver Center
01:36AM 36.3606 -108.7533 244° Southwest 429 494 40,000  Level Denver Center
01:37AM 36.3111 -108.8794 244° Southwest 430 495 40,000  Level Denver Center
01:38AM 36.2522 -109.0261 244° Southwest 431 496 40,000  Level Denver Center
01:39AM 36.2014 -109.1517 243° Southwest 431 496 40,000  Level Denver Center
01:40AM 36.1503 -109.2789 244° Southwest 433 498 40,000  Level Denver Center
01:40AM 36.1161 -109.3625 243° Southwest 432 497 40,000  Level Albuquerque Center
01:41AM 36.0900 -109.4261 243° Southwest 432 497 40,000  Level Denver Center
01:42AM 36.0392 -109.5511 243° Southwest 429 494 40,000  Level Denver Center
01:43AM 35.9764 -109.6694 237° Southwest 429 494 40,000  Level Denver Center
01:44AM 35.8933 -109.8011 232° Southwest 436 502 40,000  Level Denver Center
01:44AM 35.8575 -109.8578 232° Southwest 442 509 40,000  Level Albuquerque Center
01:45AM 35.7828 -109.9733 231° Southwest 443 510 40,000  Level Albuquerque Center
01:46AM 35.6983 -110.1081 232° Southwest 449 517 40,000  Level Albuquerque Center
01:47AM 35.6233 -110.2206 231° Southwest 447 514 40,000 -360 Level Albuquerque Center
01:48AM 35.5364 -110.3197 223° Southwest 445 512 39,300 -1,440 Descending Albuquerque Center
01:49AM 35.4353 -110.4397 224° Southwest 448 516 37,200 -2,040 Descending Albuquerque Center
01:50AM 35.3483 -110.5469 225° Southwest 460 529 35,300 -1,860 Descending Albuquerque Center
01:51AM 35.2647 -110.6486 225° Southwest 449 517 33,500 -2,040 Descending Albuquerque Center
01:52AM 35.1667 -110.7678 225° Southwest 443 510 31,300 -2,040 Descending Albuquerque Center
01:53AM 35.0808 -110.8686 224° Southwest 445 512 29,500 -1,800 Descending Albuquerque Center
01:54AM 34.9972 -110.9703 225° Southwest 455 524 27,700 -1,920 Descending Albuquerque Center
01:55AM 34.9089 -111.0831 226° Southwest 461 531 25,700 -2,040 Descending Albuquerque Center
01:56AM 34.8156 -111.1958 225° Southwest 471 542 23,700 -1,980 Descending Albuquerque Center
01:57AM 34.7269 -111.3014 224° Southwest 455 524 21,800 -1,920 Descending Albuquerque Center
01:59AM 34.6397 -111.4058 225° Southwest 446 513 19,900 -1,800 Descending Albuquerque Center
02:00AM 34.5569 -111.5025 224° Southwest 425 489 18,200 -1,800 Descending Albuquerque Center
02:01AM 34.4719 -111.6022 224° Southwest 364 419 16,300 -1,740 Descending Albuquerque Center
02:02AM 34.4006 -111.6869 224° Southwest 359 413 14,800 -1,500 Descending Albuquerque Center
02:03AM 34.3281 -111.7717 224° Southwest 363 418 13,300 -1,440 Descending Albuquerque Center
02:04AM 34.2608 -111.8497 224° Southwest 347 399 11,900 -1,200 Descending Albuquerque Center
02:05AM 34.2033 -111.9153 223° Southwest 293 337 10,900 -480 Descending Albuquerque Center
02:06AM 34.1267 -111.9264 187° South 279 321 11,000 -600 Climbing Albuquerque Center
02:07AM 34.0472 -111.9314 183° South 289 333 9,700 -1,440 Descending Albuquerque Center
02:08AM 33.9678 -111.9350 182° South 290 334 8,100 -1,260 Descending Albuquerque Center
02:09AM 33.9017 -111.9281 175° South 242 278 7,200 -1,020 Descending Albuquerque Center
02:10AM 33.8467 -111.9150 169° South 203 234 6,100 -660 Descending Albuquerque Center
02:11AM 33.8000 -111.9017 167° South 192 221 5,900 -240 Descending Albuquerque Center